Time;durP1;ratioP1;P1;durP2;ratioP2;P2;SDS_P1;SDS_P2;PMS_P1;PMS_P2;Temp;Humidity;BMP_temperature;BMP_pressure;BME280_temperature;BME280_humidity;BME280_pressure;Samples;Min_cycle;Max_cycle;Signal;HPM_P1;HPM_P2
2022/10/19 00:00:26;;;;;;;51.45;21.45;;;;;;;;;;5071200;28;20021;-45
2022/10/19 00:02:51;;;;;;;58.47;25.17;;;;;;;;;;5072201;28;20021;-43
2022/10/19 00:05:16;;;;;;;59.92;24.95;;;;;;;;;;5071265;28;20078;-43
2022/10/19 00:07:42;;;;;;;65.47;27.50;;;;;;;;;;5071723;28;20016;-39
2022/10/19 00:10:07;;;;;;;54.72;23.23;;;;;;;;;;5070960;28;20409;-43
2022/10/19 00:12:33;;;;;;;48.88;22.58;;;;;;;;;;5071463;28;20029;-42
2022/10/19 00:14:58;;;;;;;52.20;22.92;;;;;;;;;;5071929;28;20031;-42
2022/10/19 00:17:23;;;;;;;52.10;23.65;;;;;;;;;;5071534;28;20020;-39
2022/10/19 00:19:49;;;;;;;53.60;23.42;;;;;;;;;;5071330;28;20024;-42
2022/10/19 00:22:14;;;;;;;53.25;23.10;;;;;;;;;;5071083;28;20380;-36
2022/10/19 00:24:40;;;;;;;63.45;22.92;;;;;;;;;;5070951;28;20040;-43
2022/10/19 00:27:05;;;;;;;53.42;22.92;;;;;;;;;;5071581;28;20052;-43
2022/10/19 00:29:31;;;;;;;55.08;23.67;;;;;;;;;;5071139;28;20028;-44
2022/10/19 00:31:56;;;;;;;48.70;22.83;;;;;;;;;;5071557;28;20530;-43
2022/10/19 00:34:21;;;;;;;56.05;24.05;;;;;;;;;;5071553;28;20021;-43
2022/10/19 00:36:47;;;;;;;51.60;22.85;;;;;;;;;;5071356;28;20029;-43
2022/10/19 00:39:14;;;;;;;53.15;22.80;;;;;;;;;;5071378;28;20150;-44
2022/10/19 00:41:39;;;;;;;55.47;23.55;;;;;;;;;;5070894;28;20040;-40
2022/10/19 00:44:10;;;;;;;55.70;23.60;;;;;;;;;;5071099;28;20474;-38
2022/10/19 00:46:37;;;;;;;51.08;22.15;;;;;;;;;;5071409;28;20058;-42
2022/10/19 00:49:14;;;;;;;45.65;20.23;;;;;;;;;;5070614;28;20021;-42
2022/10/19 00:51:42;;;;;;;45.83;22.50;;;;;;;;;;5071362;28;20103;-40
2022/10/19 00:54:08;;;;;;;46.60;24.20;;;;;;;;;;5073304;28;20107;-41
2022/10/19 00:56:34;;;;;;;66.88;27.20;;;;;;;;;;5075295;28;20107;-38
2022/10/19 00:59:01;;;;;;;68.00;24.65;;;;;;;;;;5075573;28;20032;-40
2022/10/19 01:01:27;;;;;;;59.85;26.05;;;;;;;;;;5075125;28;20032;-41
2022/10/19 01:03:53;;;;;;;53.00;23.88;;;;;;;;;;5075454;28;20340;-39
2022/10/19 01:06:18;;;;;;;60.63;24.00;;;;;;;;;;5074839;28;20024;-39
2022/10/19 01:08:43;;;;;;;50.83;23.92;;;;;;;;;;5074147;28;20025;-38
2022/10/19 01:11:21;;;;;;;57.40;26.38;;;;;;;;;;5056925;28;20021;-42
2022/10/19 01:14:05;;;;;;;51.20;25.33;;;;;;;;;;5075192;28;20112;-42
2022/10/19 01:16:39;;;;;;;58.70;25.92;;;;;;;;;;5075123;28;20024;-39
2022/10/19 01:19:04;;;;;;;53.10;23.77;;;;;;;;;;5074952;28;20410;-40
2022/10/19 01:21:47;;;;;;;60.35;25.60;;;;;;;;;;5074387;28;20078;-37
2022/10/19 01:24:22;;;;;;;51.92;23.77;;;;;;;;;;5074851;28;20028;-38
2022/10/19 01:26:50;;;;;;;55.70;24.30;;;;;;;;;;5074989;28;20024;-37
2022/10/19 01:29:21;;;;;;;57.47;24.83;;;;;;;;;;5074801;28;20052;-43
2022/10/19 01:31:54;;;;;;;52.15;25.15;;;;;;;;;;5074140;28;20032;-43
2022/10/19 01:34:31;;;;;;;56.28;26.75;;;;;;;;;;5074863;28;20452;-41
2022/10/19 01:37:05;;;;;;;52.63;24.38;;;;;;;;;;5074767;28;20024;-43
2022/10/19 01:39:30;;;;;;;52.03;24.33;;;;;;;;;;5074593;28;20108;-39
2022/10/19 01:42:05;;;;;;;60.00;25.98;;;;;;;;;;5074764;28;20045;-42
2022/10/19 01:44:34;;;;;;;52.10;24.48;;;;;;;;;;5073719;28;20028;-40
2022/10/19 01:47:02;;;;;;;60.67;25.45;;;;;;;;;;5074026;28;20025;-40
2022/10/19 01:49:40;;;;;;;53.10;23.65;;;;;;;;;;5074438;28;20067;-41
2022/10/19 01:52:08;;;;;;;53.13;24.60;;;;;;;;;;5073804;28;20027;-42
2022/10/19 01:54:36;;;;;;;56.33;24.25;;;;;;;;;;5073976;28;20111;-43
2022/10/19 01:57:03;;;;;;;50.78;24.00;;;;;;;;;;5072873;28;20060;-40
2022/10/19 01:59:29;;;;;;;51.20;24.38;;;;;;;;;;5074288;28;20024;-40
2022/10/19 02:01:54;;;;;;;48.65;22.50;;;;;;;;;;5073535;28;20048;-36
2022/10/19 02:04:21;;;;;;;42.80;22.15;;;;;;;;;;5073439;28;20116;-43
2022/10/19 02:06:48;;;;;;;50.17;23.88;;;;;;;;;;5073292;28;20028;-41
2022/10/19 02:09:17;;;;;;;52.70;24.10;;;;;;;;;;5073305;28;20033;-41
2022/10/19 02:11:44;;;;;;;54.90;22.70;;;;;;;;;;5073773;28;20029;-37
2022/10/19 02:14:12;;;;;;;50.08;21.50;;;;;;;;;;5073840;28;20029;-40
2022/10/19 02:16:39;;;;;;;47.47;21.40;;;;;;;;;;5073878;28;20024;-42
2022/10/19 02:19:07;;;;;;;44.35;21.75;;;;;;;;;;5073777;28;20056;-40
2022/10/19 02:21:33;;;;;;;46.63;21.95;;;;;;;;;;5055692;28;20451;-43
2022/10/19 02:23:58;;;;;;;48.58;22.30;;;;;;;;;;5073446;28;20020;-43
2022/10/19 02:26:23;;;;;;;47.25;21.27;;;;;;;;;;5073806;28;20048;-41
2022/10/19 02:28:49;;;;;;;45.50;21.95;;;;;;;;;;5073967;28;20028;-41
2022/10/19 02:31:15;;;;;;;41.30;21.15;;;;;;;;;;5073512;28;20426;-45
2022/10/19 02:33:40;;;;;;;38.67;19.95;;;;;;;;;;5073319;28;20020;-42
2022/10/19 02:36:06;;;;;;;44.55;20.23;;;;;;;;;;5073510;28;20017;-40
2022/10/19 02:38:31;;;;;;;41.17;20.23;;;;;;;;;;5073265;28;20024;-44
2022/10/19 02:41:08;;;;;;;33.13;18.52;;;;;;;;;;5073031;28;20032;-42
2022/10/19 02:43:36;;;;;;;40.03;18.92;;;;;;;;;;5072869;28;20090;-40
2022/10/19 02:46:04;;;;;;;32.28;18.20;;;;;;;;;;5072771;28;20471;-42
2022/10/19 02:48:32;;;;;;;43.53;19.83;;;;;;;;;;5072700;28;20027;-42
2022/10/19 02:50:57;;;;;;;41.22;19.30;;;;;;;;;;5073247;28;20071;-40
2022/10/19 02:53:22;;;;;;;38.83;19.50;;;;;;;;;;5072910;28;20069;-44
2022/10/19 02:55:48;;;;;;;38.50;19.65;;;;;;;;;;5072923;28;20398;-42
2022/10/19 02:58:14;;;;;;;41.10;18.38;;;;;;;;;;5073179;28;20097;-41
2022/10/19 03:00:39;;;;;;;41.88;19.35;;;;;;;;;;5073163;28;20025;-42
2022/10/19 03:03:05;;;;;;;47.92;19.30;;;;;;;;;;5073073;28;20025;-39
2022/10/19 03:05:30;;;;;;;40.88;19.60;;;;;;;;;;5072845;28;20033;-42
2022/10/19 03:07:55;;;;;;;38.80;20.25;;;;;;;;;;5072500;28;20066;-43
2022/10/19 03:10:21;;;;;;;44.67;18.67;;;;;;;;;;5073276;28;20023;-42
2022/10/19 03:12:46;;;;;;;45.58;20.25;;;;;;;;;;5072830;28;20020;-42
2022/10/19 03:15:15;;;;;;;42.78;19.85;;;;;;;;;;5072772;28;20021;-41
2022/10/19 03:17:40;;;;;;;40.17;19.48;;;;;;;;;;5071832;28;20027;-42
2022/10/19 03:20:06;;;;;;;39.20;20.20;;;;;;;;;;5072452;28;20121;-42
2022/10/19 03:22:31;;;;;;;39.70;19.95;;;;;;;;;;5072251;28;20074;-41
2022/10/19 03:24:57;;;;;;;50.50;21.48;;;;;;;;;;5072465;28;20032;-41
2022/10/19 03:27:22;;;;;;;40.15;20.00;;;;;;;;;;5072298;28;20021;-42
2022/10/19 03:29:47;;;;;;;41.17;19.20;;;;;;;;;;5072160;28;20074;-42
2022/10/19 03:32:13;;;;;;;40.83;19.00;;;;;;;;;;5071706;28;20028;-40
2022/10/19 03:34:38;;;;;;;40.75;21.40;;;;;;;;;;5071864;28;20452;-36
2022/10/19 03:37:03;;;;;;;44.38;20.55;;;;;;;;;;5071960;28;20039;-38
2022/10/19 03:39:29;;;;;;;38.65;18.60;;;;;;;;;;5071658;28;20020;-38
2022/10/19 03:41:54;;;;;;;39.15;20.15;;;;;;;;;;5071769;28;20023;-36
2022/10/19 03:44:19;;;;;;;49.58;20.70;;;;;;;;;;5071762;28;20539;-41
2022/10/19 03:46:45;;;;;;;55.67;21.83;;;;;;;;;;5071648;28;20028;-42
2022/10/19 03:49:10;;;;;;;39.90;19.23;;;;;;;;;;5071960;28;20031;-40
2022/10/19 03:51:36;;;;;;;42.33;19.40;;;;;;;;;;5071677;28;20016;-44
2022/10/19 03:54:03;;;;;;;42.75;18.80;;;;;;;;;;5071462;28;20096;-42
2022/10/19 03:56:29;;;;;;;42.25;18.83;;;;;;;;;;5071112;28;20028;-40
2022/10/19 03:58:55;;;;;;;48.72;18.98;;;;;;;;;;5071835;28;20055;-43
2022/10/19 04:01:30;;;;;;;50.40;19.63;;;;;;;;;;5071588;28;20020;-42
2022/10/19 04:03:57;;;;;;;46.80;19.42;;;;;;;;;;5071653;28;20030;-42
2022/10/19 04:06:29;;;;;;;59.45;19.58;;;;;;;;;;5071510;28;20036;-41
2022/10/19 04:08:54;;;;;;;48.60;20.65;;;;;;;;;;5071702;28;20029;-42
2022/10/19 04:11:21;;;;;;;41.22;19.10;;;;;;;;;;5071420;28;20027;-42
2022/10/19 04:13:50;;;;;;;39.40;18.42;;;;;;;;;;5071800;28;20017;-39
2022/10/19 04:16:15;;;;;;;;;;;;;;;;;;5071911;28;20029;-42
2022/10/19 04:18:40;;;;;;;40.33;18.33;;;;;;;;;;5071290;28;20378;-42
2022/10/19 04:21:06;;;;;;;44.47;19.67;;;;;;;;;;5070842;28;20060;-37
2022/10/19 04:23:33;;;;;;;45.35;20.05;;;;;;;;;;5071363;28;20012;-43
2022/10/19 04:25:59;;;;;;;62.17;21.17;;;;;;;;;;5053052;28;20032;-43
2022/10/19 04:28:24;;;;;;;36.80;19.55;;;;;;;;;;5070869;28;20024;-44
2022/10/19 04:30:50;;;;;;;44.53;19.17;;;;;;;;;;5071531;28;20016;-41
2022/10/19 04:33:15;;;;;;;38.72;19.45;;;;;;;;;;5070975;28;20047;-41
2022/10/19 04:35:40;;;;;;;48.50;20.33;;;;;;;;;;5071207;28;20062;-42
2022/10/19 04:38:06;;;;;;;47.30;19.92;;;;;;;;;;5071043;28;20104;-41
2022/10/19 04:40:33;;;;;;;40.40;21.08;;;;;;;;;;5071317;28;20483;-39
2022/10/19 04:42:58;;;;;;;53.47;21.08;;;;;;;;;;5071022;28;20025;-42
2022/10/19 04:45:23;;;;;;;43.03;20.33;;;;;;;;;;5070466;28;20048;-41
2022/10/19 04:47:49;;;;;;;36.15;19.60;;;;;;;;;;5052694;28;20035;-41
2022/10/19 04:50:14;;;;;;;50.92;21.95;;;;;;;;;;5071141;28;20024;-42
2022/10/19 04:52:39;;;;;;;46.88;21.40;;;;;;;;;;5071082;28;20070;-42
2022/10/19 04:55:05;;;;;;;42.42;21.70;;;;;;;;;;5071262;28;20108;-41
2022/10/19 04:57:30;;;;;;;36.63;19.73;;;;;;;;;;5070746;28;20040;-43
2022/10/19 04:59:55;;;;;;;38.90;19.47;;;;;;;;;;5070971;28;20071;-43
2022/10/19 05:02:20;;;;;;;33.25;20.02;;;;;;;;;;5071130;28;20242;-44
2022/10/19 05:04:46;;;;;;;39.53;19.77;;;;;;;;;;5070584;28;20071;-41
2022/10/19 05:07:12;;;;;;;40.45;20.00;;;;;;;;;;5069850;28;20024;-44
2022/10/19 05:09:39;;;;;;;34.17;19.25;;;;;;;;;;5070655;28;20031;-41
2022/10/19 05:12:04;;;;;;;34.35;18.63;;;;;;;;;;5070957;28;20021;-38
2022/10/19 05:14:31;;;;;;;41.40;19.95;;;;;;;;;;5071062;28;20020;-41
2022/10/19 05:16:56;;;;;;;43.10;20.65;;;;;;;;;;5070972;28;20515;-40
2022/10/19 05:19:22;;;;;;;50.38;21.48;;;;;;;;;;5052853;28;20048;-36
2022/10/19 05:21:47;;;;;;;47.03;23.38;;;;;;;;;;5070530;28;20491;-39
2022/10/19 05:24:12;;;;;;;44.40;19.60;;;;;;;;;;5071342;28;20032;-43
2022/10/19 05:26:37;;;;;;;36.85;19.95;;;;;;;;;;5071226;28;20329;-41
2022/10/19 05:29:03;;;;;;;42.00;21.95;;;;;;;;;;5071050;28;20059;-39
2022/10/19 05:31:33;;;;;;;46.67;20.70;;;;;;;;;;5052450;28;20452;-36
2022/10/19 05:33:58;;;;;;;44.78;20.13;;;;;;;;;;5070674;28;20025;-40
2022/10/19 05:36:25;;;;;;;52.58;20.08;;;;;;;;;;5070492;28;20040;-40
2022/10/19 05:38:51;;;;;;;39.55;20.50;;;;;;;;;;5070776;28;20028;-41
2022/10/19 05:41:17;;;;;;;50.97;21.17;;;;;;;;;;5075708;28;20023;-43
2022/10/19 05:43:43;;;;;;;55.88;21.77;;;;;;;;;;5085948;28;20059;-39
2022/10/19 05:46:09;;;;;;;43.97;22.33;;;;;;;;;;5089517;28;20376;-43
2022/10/19 05:48:35;;;;;;;65.93;23.65;;;;;;;;;;5083204;28;20025;-38
2022/10/19 05:51:01;;;;;;;51.13;21.23;;;;;;;;;;5074394;28;20023;-43
2022/10/19 05:53:27;;;;;;;43.75;20.02;;;;;;;;;;5084929;28;20026;-44
2022/10/19 05:55:53;;;;;;;51.13;20.73;;;;;;;;;;5075421;28;20122;-39
2022/10/19 05:58:18;;;;;;;208.60;32.08;;;;;;;;;;5073217;28;20056;-39
2022/10/19 06:00:49;;;;;;;56.05;26.83;;;;;;;;;;5066741;28;20434;-41
2022/10/19 06:03:16;;;;;;;46.95;25.35;;;;;;;;;;5076614;28;20024;-40
2022/10/19 06:05:41;;;;;;;57.13;28.05;;;;;;;;;;5072847;28;20048;-44
2022/10/19 06:08:06;;;;;;;65.03;26.13;;;;;;;;;;5077162;28;20020;-46
2022/10/19 06:10:32;;;;;;;55.78;23.08;;;;;;;;;;5072464;28;20059;-44
2022/10/19 06:12:57;;;;;;;56.13;21.90;;;;;;;;;;5075706;28;20035;-40
2022/10/19 06:15:22;;;;;;;48.80;22.10;;;;;;;;;;5075016;28;20070;-45
2022/10/19 06:17:48;;;;;;;46.10;20.65;;;;;;;;;;5076680;28;20024;-44
2022/10/19 06:20:13;;;;;;;35.58;19.67;;;;;;;;;;5074126;28;20198;-42
2022/10/19 06:22:38;;;;;;;35.65;19.35;;;;;;;;;;5054631;28;20020;-44
2022/10/19 06:25:04;;;;;;;34.65;17.83;;;;;;;;;;5078316;28;20115;-43
2022/10/19 06:27:30;;;;;;;33.22;18.00;;;;;;;;;;5076893;28;20035;-44
2022/10/19 06:29:55;;;;;;;37.13;18.70;;;;;;;;;;5073346;28;20048;-43
2022/10/19 06:32:21;;;;;;;30.15;16.70;;;;;;;;;;5080576;28;20056;-42
2022/10/19 06:34:46;;;;;;;37.22;19.73;;;;;;;;;;5079791;28;20032;-41
2022/10/19 06:37:11;;;;;;;38.25;20.08;;;;;;;;;;5077351;28;20045;-42
2022/10/19 06:39:36;;;;;;;34.10;19.27;;;;;;;;;;5073867;28;20107;-40
2022/10/19 06:42:02;;;;;;;42.90;20.83;;;;;;;;;;5079876;28;20057;-42
2022/10/19 06:44:27;;;;;;;39.40;20.25;;;;;;;;;;5071785;28;20039;-42
2022/10/19 06:46:52;;;;;;;37.22;19.23;;;;;;;;;;5072006;28;20082;-43
2022/10/19 06:49:18;;;;;;;38.22;20.23;;;;;;;;;;5056283;28;20016;-43
2022/10/19 06:51:43;;;;;;;35.47;19.60;;;;;;;;;;5071441;28;20147;-42
2022/10/19 06:54:09;;;;;;;32.38;17.65;;;;;;;;;;5069572;28;20032;-44
2022/10/19 06:56:34;;;;;;;28.80;17.63;;;;;;;;;;5062951;28;21864;-39
2022/10/19 06:59:00;;;;;;;29.08;16.15;;;;;;;;;;5064198;28;20055;-45
2022/10/19 07:01:25;;;;;;;27.73;16.95;;;;;;;;;;5053825;28;20431;-42
2022/10/19 07:03:51;;;;;;;33.35;17.38;;;;;;;;;;5072310;28;20025;-41
2022/10/19 07:06:16;;;;;;;30.60;16.20;;;;;;;;;;5071848;28;20025;-43
2022/10/19 07:08:42;;;;;;;37.28;17.02;;;;;;;;;;5073891;28;20028;-38
2022/10/19 07:11:09;;;;;;;23.02;14.48;;;;;;;;;;5067786;28;20166;-43
2022/10/19 07:13:35;;;;;;;30.83;16.52;;;;;;;;;;5071045;28;20024;-44
2022/10/19 07:16:02;;;;;;;27.67;16.98;;;;;;;;;;5078916;28;20020;-43
2022/10/19 07:18:28;;;;;;;26.65;16.10;;;;;;;;;;5075477;28;20620;-45
2022/10/19 07:20:57;;;;;;;21.48;14.35;;;;;;;;;;5069738;28;20028;-43
2022/10/19 07:23:23;;;;;;;35.20;14.65;;;;;;;;;;5069236;28;20408;-42
2022/10/19 07:25:48;;;;;;;23.30;12.95;;;;;;;;;;5071536;28;20046;-42
2022/10/19 07:28:14;;;;;;;31.15;14.88;;;;;;;;;;5080212;28;20016;-42
2022/10/19 07:30:39;;;;;;;28.25;14.45;;;;;;;;;;5072585;28;20020;-41
2022/10/19 07:33:05;;;;;;;22.77;13.65;;;;;;;;;;5072250;28;20028;-43
2022/10/19 07:35:31;;;;;;;19.52;11.80;;;;;;;;;;5072198;28;20078;-41
2022/10/19 07:37:56;;;;;;;21.08;12.63;;;;;;;;;;5071047;28;20109;-40
2022/10/19 07:40:21;;;;;;;17.92;11.30;;;;;;;;;;5071117;28;20031;-41
2022/10/19 07:42:46;;;;;;;22.50;11.63;;;;;;;;;;5070954;28;20081;-41
2022/10/19 07:45:12;;;;;;;17.75;10.00;;;;;;;;;;5073404;28;20039;-39
2022/10/19 07:47:37;;;;;;;16.63;9.45;;;;;;;;;;5070420;28;20029;-40
2022/10/19 07:50:03;;;;;;;16.85;10.05;;;;;;;;;;5089041;28;20023;-41
2022/10/19 07:52:28;;;;;;;11.73;8.75;;;;;;;;;;5085773;28;20020;-37
2022/10/19 07:54:54;;;;;;;14.95;8.65;;;;;;;;;;5055222;28;20024;-42
2022/10/19 07:57:21;;;;;;;17.33;9.45;;;;;;;;;;5070560;28;20080;-43
2022/10/19 07:59:46;;;;;;;16.48;9.30;;;;;;;;;;5070985;28;20020;-37
2022/10/19 08:02:15;;;;;;;16.87;9.57;;;;;;;;;;5072830;28;20460;-38
2022/10/19 08:04:41;;;;;;;17.27;9.23;;;;;;;;;;5090102;28;20802;-41
2022/10/19 08:07:06;;;;;;;14.80;8.82;;;;;;;;;;5090979;28;20170;-43
2022/10/19 08:09:31;;;;;;;12.50;8.20;;;;;;;;;;5065312;28;20376;-39
2022/10/19 08:11:57;;;;;;;19.52;8.90;;;;;;;;;;5075886;28;20035;-40
2022/10/19 08:14:22;;;;;;;13.38;8.23;;;;;;;;;;5068823;28;20017;-41
2022/10/19 08:16:47;;;;;;;14.40;8.88;;;;;;;;;;5072264;28;20027;-40
2022/10/19 08:19:14;;;;;;;15.60;7.43;;;;;;;;;;5072394;28;20630;-41
2022/10/19 08:21:40;;;;;;;19.83;8.70;;;;;;;;;;5081470;28;20051;-43
2022/10/19 08:24:06;;;;;;;11.23;8.00;;;;;;;;;;5083905;28;20464;-43
2022/10/19 08:26:32;;;;;;;14.82;7.70;;;;;;;;;;5079796;28;20031;-41
2022/10/19 08:29:05;;;;;;;18.42;8.43;;;;;;;;;;5077471;28;20039;-41
2022/10/19 08:31:30;;;;;;;10.40;7.55;;;;;;;;;;5072507;28;20032;-39
2022/10/19 08:33:56;;;;;;;15.85;7.28;;;;;;;;;;5085714;28;20059;-40
2022/10/19 08:36:21;;;;;;;9.68;6.70;;;;;;;;;;5089288;28;20028;-40
2022/10/19 08:38:47;;;;;;;15.48;7.25;;;;;;;;;;5091103;28;20024;-43
2022/10/19 08:41:30;;;;;;;14.38;6.47;;;;;;;;;;5083135;28;20119;-40
2022/10/19 08:44:01;;;;;;;11.30;6.45;;;;;;;;;;5074569;28;20024;-43
2022/10/19 08:46:35;;;;;;;11.10;5.68;;;;;;;;;;5068915;28;20036;-37
2022/10/19 08:49:02;;;;;;;7.55;5.78;;;;;;;;;;5051275;28;20028;-42
2022/10/19 08:51:28;;;;;;;12.68;5.93;;;;;;;;;;5071142;28;20483;-39
2022/10/19 08:53:55;;;;;;;11.05;5.75;;;;;;;;;;5072881;28;20021;-43
2022/10/19 08:56:29;;;;;;;7.63;4.72;;;;;;;;;;5069384;28;20119;-42
2022/10/19 08:59:16;;;;;;;7.35;4.03;;;;;;;;;;5049896;28;20543;-43
2022/10/19 09:01:56;;;;;;;6.18;4.00;;;;;;;;;;5056128;28;20032;-44
2022/10/19 09:04:31;;;;;;;7.10;4.75;;;;;;;;;;5059704;28;20052;-44
2022/10/19 09:06:57;;;;;;;9.88;5.22;;;;;;;;;;5068542;28;20028;-43
2022/10/19 09:09:22;;;;;;;13.65;5.40;;;;;;;;;;5052561;28;20075;-41
2022/10/19 09:11:49;;;;;;;9.05;4.82;;;;;;;;;;5050519;28;20104;-37
2022/10/19 09:14:27;;;;;;;6.40;4.20;;;;;;;;;;5050550;28;20029;-44
2022/10/19 09:16:55;;;;;;;7.57;4.47;;;;;;;;;;5059347;28;20079;-42
2022/10/19 09:19:24;;;;;;;7.90;4.68;;;;;;;;;;5064540;28;20035;-38
2022/10/19 09:21:52;;;;;;;10.00;4.60;;;;;;;;;;5066380;28;20146;-39
2022/10/19 09:24:42;;;;;;;8.20;4.82;;;;;;;;;;5058299;28;20036;-42
2022/10/19 09:27:15;;;;;;;4.85;3.83;;;;;;;;;;5057752;28;20028;-43
2022/10/19 09:29:43;;;;;;;7.18;3.65;;;;;;;;;;5059339;28;20426;-43
2022/10/19 09:32:14;;;;;;;9.00;3.47;;;;;;;;;;5055043;28;20109;-39
2022/10/19 09:34:50;;;;;;;11.93;4.13;;;;;;;;;;5055461;28;20021;-40
2022/10/19 09:37:16;;;;;;;6.90;3.95;;;;;;;;;;5053190;28;20029;-36
2022/10/19 09:39:41;;;;;;;8.77;4.07;;;;;;;;;;5053890;28;20430;-40
2022/10/19 09:42:15;;;;;;;9.43;3.65;;;;;;;;;;5063765;28;20046;-43
2022/10/19 09:44:40;;;;;;;6.18;3.33;;;;;;;;;;5060022;28;20475;-42
2022/10/19 09:47:44;;;;;;;6.18;3.47;;;;;;;;;;5057186;28;20158;-43
2022/10/19 09:50:19;;;;;;;5.85;3.97;;;;;;;;;;4972439;28;20053;-37
2022/10/19 09:52:45;;;;;;;6.88;3.33;;;;;;;;;;4966602;28;20058;-44
2022/10/19 09:55:13;;;;;;;5.50;3.70;;;;;;;;;;5018453;28;20033;-40
2022/10/19 09:57:42;;;;;;;8.32;4.22;;;;;;;;;;5072463;28;20048;-44
2022/10/19 10:00:15;;;;;;;6.13;3.78;;;;;;;;;;5082747;28;20028;-43
2022/10/19 10:02:47;;;;;;;7.68;4.47;;;;;;;;;;5069201;28;20036;-44
2022/10/19 10:05:13;;;;;;;6.72;3.80;;;;;;;;;;5077244;28;20441;-45
2022/10/19 10:07:39;;;;;;;9.35;3.80;;;;;;;;;;5073712;28;20028;-42
2022/10/19 10:10:08;;;;;;;5.55;3.08;;;;;;;;;;5077817;28;20024;-43
2022/10/19 10:12:34;;;;;;;10.30;3.95;;;;;;;;;;5081197;28;20391;-43
2022/10/19 10:15:01;;;;;;;4.68;3.53;;;;;;;;;;5072629;28;20025;-41
2022/10/19 10:17:29;;;;;;;4.80;3.40;;;;;;;;;;5089716;28;20020;-44
2022/10/19 10:19:57;;;;;;;9.15;4.03;;;;;;;;;;5082116;28;20031;-45
2022/10/19 10:22:30;;;;;;;3.78;3.38;;;;;;;;;;5079152;28;20112;-41
2022/10/19 10:24:56;;;;;;;6.25;3.70;;;;;;;;;;5076749;28;20086;-43
2022/10/19 10:27:30;;;;;;;5.07;3.30;;;;;;;;;;5073171;28;20107;-39
2022/10/19 10:29:56;;;;;;;7.07;4.00;;;;;;;;;;5087048;28;20036;-42
2022/10/19 10:32:21;;;;;;;5.50;2.95;;;;;;;;;;5082388;28;20023;-41
2022/10/19 10:34:59;;;;;;;5.15;3.58;;;;;;;;;;5071794;28;20365;-38
2022/10/19 10:37:38;;;;;;;5.30;3.53;;;;;;;;;;5072265;28;20031;-41
2022/10/19 10:40:05;;;;;;;5.32;3.53;;;;;;;;;;5078880;28;20028;-41
2022/10/19 10:42:41;;;;;;;5.10;3.17;;;;;;;;;;5092679;28;20467;-41
2022/10/19 10:45:27;;;;;;;4.10;3.13;;;;;;;;;;5091503;28;20910;-46
2022/10/19 10:47:52;;;;;;;4.97;2.90;;;;;;;;;;5067225;28;20118;-44
2022/10/19 10:50:22;;;;;;;4.13;2.83;;;;;;;;;;5081154;28;20544;-39
2022/10/19 10:52:59;;;;;;;6.20;3.28;;;;;;;;;;5054738;28;20028;-41
2022/10/19 10:55:25;;;;;;;10.88;3.03;;;;;;;;;;5088060;28;20024;-42
2022/10/19 10:57:52;;;;;;;4.32;2.72;;;;;;;;;;5085422;28;20582;-38
2022/10/19 11:00:19;;;;;;;5.97;2.70;;;;;;;;;;5078860;28;20036;-42
2022/10/19 11:03:06;;;;;;;3.90;2.75;;;;;;;;;;5092158;28;20028;-45
2022/10/19 11:05:37;;;;;;;3.10;2.40;;;;;;;;;;5091659;28;20439;-42
2022/10/19 11:08:17;;;;;;;3.58;2.72;;;;;;;;;;5086579;28;20012;-46
2022/10/19 11:10:50;;;;;;;7.57;2.92;;;;;;;;;;5077837;28;20023;-40
2022/10/19 11:13:27;;;;;;;8.93;3.95;;;;;;;;;;5065575;28;20064;-44
2022/10/19 11:15:56;;;;;;;4.63;3.33;;;;;;;;;;5074717;28;20027;-44
2022/10/19 11:18:24;;;;;;;44.58;5.63;;;;;;;;;;5092611;28;20024;-46
2022/10/19 11:21:12;;;;;;;9.95;3.47;;;;;;;;;;5071453;28;20104;-40
2022/10/19 11:23:44;;;;;;;5.63;3.50;;;;;;;;;;5061546;28;20121;-44
2022/10/19 11:26:21;;;;;;;9.30;3.47;;;;;;;;;;5092529;28;20028;-43
2022/10/19 11:28:46;;;;;;;5.35;3.25;;;;;;;;;;5092783;28;20020;-44
2022/10/19 11:31:15;;;;;;;7.28;3.22;;;;;;;;;;5090502;28;20411;-45
2022/10/19 11:33:40;;;;;;;9.45;3.38;;;;;;;;;;5078661;28;20052;-46
2022/10/19 11:36:29;;;;;;;5.80;3.88;;;;;;;;;;5074019;28;20466;-46
2022/10/19 11:39:13;;;;;;;5.80;3.70;;;;;;;;;;5052533;28;20020;-46
2022/10/19 11:41:48;;;;;;;5.75;3.58;;;;;;;;;;5050365;28;20054;-44
2022/10/19 11:44:17;;;;;;;6.00;3.22;;;;;;;;;;5055043;28;20051;-45
2022/10/19 11:46:44;;;;;;;;;;;;;;;;;;5075913;28;20139;-44
2022/10/19 11:49:18;;;;;;;4.32;3.25;;;;;;;;;;5075470;28;19908;-42
2022/10/19 11:51:56;;;;;;;4.78;3.08;;;;;;;;;;5056336;28;20024;-42
2022/10/19 11:54:33;;;;;;;5.07;3.28;;;;;;;;;;5081726;28;20036;-42
2022/10/19 11:57:06;;;;;;;15.35;4.68;;;;;;;;;;5080544;28;20559;-37
2022/10/19 11:59:41;;;;;;;11.57;4.07;;;;;;;;;;5072283;28;20081;-43
2022/10/19 12:02:25;;;;;;;8.27;4.03;;;;;;;;;;5076507;28;20017;-42
2022/10/19 12:05:07;;;;;;;5.45;3.30;;;;;;;;;;5075555;28;20067;-45
2022/10/19 12:07:52;;;;;;;9.95;3.00;;;;;;;;;;5074495;28;20067;-40
2022/10/19 12:10:17;;;;;;;7.03;3.33;;;;;;;;;;5077484;28;20505;-44
2022/10/19 12:12:44;;;;;;;7.20;3.45;;;;;;;;;;5075606;28;20528;-42
2022/10/19 12:15:10;;;;;;;4.75;2.83;;;;;;;;;;5076816;28;20074;-43
2022/10/19 12:17:36;;;;;;;6.22;3.03;;;;;;;;;;5076631;28;20103;-42
2022/10/19 12:20:05;;;;;;;5.60;3.45;;;;;;;;;;5073991;28;20402;-41
2022/10/19 12:22:32;;;;;;;5.43;3.20;;;;;;;;;;5077887;28;20039;-40
2022/10/19 12:24:59;;;;;;;9.48;3.00;;;;;;;;;;5072680;28;20476;-43
2022/10/19 12:27:34;;;;;;;6.60;3.50;;;;;;;;;;5079075;28;20029;-43
2022/10/19 12:30:07;;;;;;;5.15;2.80;;;;;;;;;;5071277;28;20028;-43
2022/10/19 12:32:53;;;;;;;7.70;3.05;;;;;;;;;;5075080;28;20049;-40
2022/10/19 12:35:31;;;;;;;4.55;3.13;;;;;;;;;;5058530;28;20036;-45
2022/10/19 12:38:05;;;;;;;3.92;2.88;;;;;;;;;;5072916;28;20029;-41
2022/10/19 12:40:38;;;;;;;7.05;3.22;;;;;;;;;;5079334;28;20077;-40
2022/10/19 12:43:09;;;;;;;11.70;4.07;;;;;;;;;;5071191;28;20539;-42
2022/10/19 12:45:54;;;;;;;6.80;3.50;;;;;;;;;;5074812;28;20028;-44
2022/10/19 12:48:20;;;;;;;8.27;3.92;;;;;;;;;;5074256;28;20028;-45
2022/10/19 12:50:45;;;;;;;6.68;3.70;;;;;;;;;;5086551;28;20024;-44
2022/10/19 12:53:21;;;;;;;10.82;4.72;;;;;;;;;;5081485;28;20372;-44
2022/10/19 12:55:56;;;;;;;8.90;3.85;;;;;;;;;;5084112;28;20028;-44
2022/10/19 12:58:22;;;;;;;27.48;6.68;;;;;;;;;;5076809;28;20504;-44
2022/10/19 13:00:58;;;;;;;12.80;4.60;;;;;;;;;;5082796;28;20052;-43
2022/10/19 13:03:26;;;;;;;6.93;3.75;;;;;;;;;;5082418;28;20036;-44
2022/10/19 13:06:18;;;;;;;8.80;3.80;;;;;;;;;;5080698;28;20487;-45
2022/10/19 13:08:53;;;;;;;5.50;3.58;;;;;;;;;;5062600;28;20098;-43
2022/10/19 13:11:19;;;;;;;6.55;3.53;;;;;;;;;;5076154;28;20571;-43
2022/10/19 13:14:03;;;;;;;8.82;3.35;;;;;;;;;;5079448;28;20626;-43
2022/10/19 13:16:28;;;;;;;6.40;3.53;;;;;;;;;;5084292;28;20017;-44
2022/10/19 13:19:00;;;;;;;6.72;4.07;;;;;;;;;;5087592;28;20115;-44
2022/10/19 13:21:43;;;;;;;6.47;3.80;;;;;;;;;;5080093;28;20024;-44
2022/10/19 13:24:24;;;;;;;10.15;4.50;;;;;;;;;;5077440;28;20102;-45
2022/10/19 13:27:01;;;;;;;7.57;3.63;;;;;;;;;;5081463;28;20035;-41
2022/10/19 13:29:35;;;;;;;5.93;3.30;;;;;;;;;;5075062;28;20066;-44
2022/10/19 13:32:19;;;;;;;6.63;3.55;;;;;;;;;;5077934;28;20069;-44
2022/10/19 13:34:45;;;;;;;8.10;4.07;;;;;;;;;;5075731;28;20032;-40
